Time;durP1;ratioP1;P1;durP2;ratioP2;P2;SDS_P1;SDS_P2;PMS_P1;PMS_P2;Temp;Humidity;BMP_temperature;BMP_pressure;BME280_temperature;BME280_humidity;BME280_pressure;Samples;Min_cycle;Max_cycle;Signal;HPM_P1;HPM_P2
2022/09/16 00:00:50;;;;;;;2.90;1.55;;;;;;;17.73;54.96;100955.56;5073971;28;20491;-69
2022/09/16 00:03:17;;;;;;;6.93;1.52;;;;;;;17.69;55.28;100948.72;5073704;28;20124;-69
2022/09/16 00:05:47;;;;;;;3.95;1.48;;;;;;;17.68;55.32;100955.16;5073983;28;20106;-69
2022/09/16 00:08:15;;;;;;;3.10;1.55;;;;;;;17.64;54.99;100959.16;5073876;28;20036;-69
2022/09/16 00:10:42;;;;;;;5.38;1.92;;;;;;;17.62;54.94;100952.16;5092678;28;20498;-70
2022/09/16 00:13:11;;;;;;;4.38;1.77;;;;;;;17.59;55.42;100960.59;5093832;28;20040;-69
2022/09/16 00:15:42;;;;;;;5.25;1.70;;;;;;;17.56;55.38;100964.47;5094102;28;20035;-69
2022/09/16 00:18:10;;;;;;;6.45;1.52;;;;;;;17.53;55.07;100959.34;5093676;28;20567;-69
2022/09/16 00:20:45;;;;;;;4.20;1.50;;;;;;;17.52;55.47;100960.34;5093008;28;20076;-70
2022/09/16 00:23:12;;;;;;;6.22;1.50;;;;;;;17.51;55.26;100955.09;5093365;28;20044;-69
2022/09/16 00:25:39;;;;;;;4.53;1.67;;;;;;;17.49;55.66;100957.94;5093949;28;20100;-69
2022/09/16 00:28:06;;;;;;;6.13;1.90;;;;;;;17.46;55.32;100950.09;5092886;28;20048;-69
2022/09/16 00:30:33;;;;;;;4.90;1.80;;;;;;;17.47;55.91;100951.81;5093198;28;20184;-70
2022/09/16 00:32:59;;;;;;;6.03;1.88;;;;;;;17.47;55.44;100947.25;5093468;28;20105;-69
2022/09/16 00:35:27;;;;;;;4.25;1.77;;;;;;;17.49;55.70;100930.78;5093546;28;20101;-69
2022/09/16 00:37:54;;;;;;;3.20;1.65;;;;;;;17.51;55.99;100934.22;5083900;28;20111;-69
2022/09/16 00:40:21;;;;;;;7.00;1.77;;;;;;;17.53;56.00;100932.19;5055324;28;20384;-69
2022/09/16 00:42:48;;;;;;;3.78;1.70;;;;;;;17.58;56.18;100948.03;5072911;28;20044;-69
2022/09/16 00:45:21;;;;;;;5.97;1.90;;;;;;;17.59;55.87;100947.88;5073302;28;20051;-70
2022/09/16 00:47:52;;;;;;;4.28;1.90;;;;;;;17.61;56.19;100947.72;5080306;28;20054;-69
2022/09/16 00:50:27;;;;;;;4.28;1.80;;;;;;;17.60;55.76;100946.88;5093383;28;20398;-70
2022/09/16 00:52:55;;;;;;;6.68;2.00;;;;;;;17.61;55.98;100950.44;5092156;28;20036;-70
2022/09/16 00:55:29;;;;;;;5.22;2.28;;;;;;;17.62;56.04;100947.59;5093552;28;20571;-70
2022/09/16 00:58:03;;;;;;;9.82;1.95;;;;;;;17.64;56.09;100947.44;5083586;28;20441;-70
2022/09/16 01:00:30;;;;;;;5.38;2.08;;;;;;;17.63;56.18;100945.72;5072824;28;20045;-70
2022/09/16 01:02:57;;;;;;;6.85;1.92;;;;;;;17.63;55.88;100941.13;5072510;28;20047;-69
2022/09/16 01:05:25;;;;;;;6.07;2.17;;;;;;;17.65;56.20;100938.28;5072884;28;20074;-70
2022/09/16 01:07:53;;;;;;;6.28;2.40;;;;;;;17.66;55.98;100939.97;5080339;28;20052;-70
2022/09/16 01:10:23;;;;;;;4.95;2.17;;;;;;;17.67;56.27;100937.16;5058165;28;20044;-69
2022/09/16 01:12:54;;;;;;;5.45;1.88;;;;;;;17.70;56.17;100934.13;5092578;28;20036;-69
2022/09/16 01:15:35;;;;;;;6.75;2.45;;;;;;;17.71;56.36;100935.84;5093082;28;20040;-70
2022/09/16 01:18:02;;;;;;;6.68;2.25;;;;;;;17.72;55.90;100932.09;5091577;28;20063;-70
2022/09/16 01:21:01;;;;;;;4.82;2.38;;;;;;;17.70;56.12;100934.13;5092867;28;20044;-69
2022/09/16 01:24:04;;;;;;;4.13;2.40;;;;;;;17.71;56.20;100938.56;5073019;28;20060;-69
2022/09/16 01:26:49;;;;;;;7.20;2.50;;;;;;;17.72;56.40;100939.41;5090941;28;20048;-70
2022/09/16 01:29:38;;;;;;;9.23;2.47;;;;;;;17.68;56.39;100933.44;5092585;28;20047;-70
2022/09/16 01:32:11;;;;;;;6.03;2.10;;;;;;;17.69;56.43;100935.13;5092300;28;20043;-69
2022/09/16 01:35:01;;;;;;;5.95;2.10;;;;;;;17.68;56.20;100929.84;5081665;28;20033;-70
2022/09/16 01:37:41;;;;;;;5.40;2.33;;;;;;;17.70;56.30;100941.41;5071930;28;20040;-69
2022/09/16 01:40:19;;;;;;;6.78;2.13;;;;;;;17.70;56.42;100942.28;5072110;28;20048;-69
2022/09/16 01:43:02;;;;;;;7.35;2.05;;;;;;;17.70;56.21;100945.00;5079973;28;20113;-69
2022/09/16 01:45:38;;;;;;;7.35;2.47;;;;;;;17.69;56.46;100937.00;5092227;28;20628;-69
2022/09/16 01:48:29;;;;;;;6.78;2.45;;;;;;;17.69;56.11;100939.72;5092309;28;20032;-69
2022/09/16 01:51:11;;;;;;;5.55;2.10;;;;;;;17.68;56.12;100943.44;5092089;28;20547;-69
2022/09/16 01:53:50;;;;;;;9.73;2.60;;;;;;;17.65;55.96;100939.13;5075910;28;20099;-69
2022/09/16 01:56:28;;;;;;;6.70;2.25;;;;;;;17.60;56.15;100933.31;5072039;28;20089;-69
2022/09/16 01:59:02;;;;;;;4.40;2.22;;;;;;;17.57;56.18;100930.88;5054247;28;20033;-69
2022/09/16 02:01:44;;;;;;;6.68;2.17;;;;;;;17.54;56.19;100931.19;5071756;28;20041;-70
2022/09/16 02:04:41;;;;;;;6.47;2.65;;;;;;;17.52;55.94;100937.78;5091499;28;20139;-70
2022/09/16 02:07:11;;;;;;;5.05;1.90;;;;;;;17.48;56.00;100943.50;5083762;28;20048;-70
2022/09/16 02:09:43;;;;;;;6.50;2.22;;;;;;;17.46;56.03;100941.97;5073751;28;20039;-70
2022/09/16 02:12:15;;;;;;;5.05;2.60;;;;;;;17.44;56.08;100942.09;5089202;28;20093;-70
2022/09/16 02:14:45;;;;;;;5.20;2.20;;;;;;;17.44;56.25;100946.69;5071597;28;20032;-71
2022/09/16 02:17:16;;;;;;;8.48;2.67;;;;;;;17.45;56.47;100945.69;5071424;28;20036;-70
2022/09/16 02:19:51;;;;;;;10.32;2.45;;;;;;;17.46;56.28;100952.81;5071611;28;20040;-71
2022/09/16 02:22:26;;;;;;;10.57;2.45;;;;;;;17.47;56.33;100958.09;5073550;28;20052;-69
2022/09/16 02:24:53;;;;;;;4.43;2.33;;;;;;;17.47;56.22;100960.81;5091842;28;20072;-69
2022/09/16 02:27:21;;;;;;;8.77;2.83;;;;;;;17.46;56.50;100950.09;5091529;28;20067;-69
2022/09/16 02:29:53;;;;;;;5.97;2.53;;;;;;;17.42;56.80;100943.25;5091507;28;20086;-69
2022/09/16 02:32:22;;;;;;;8.73;2.97;;;;;;;17.40;56.72;100948.00;5069838;28;20036;-68
2022/09/16 02:34:53;;;;;;;5.95;2.38;;;;;;;17.40;56.83;100954.28;5071329;28;20044;-69
2022/09/16 02:37:30;;;;;;;9.27;2.85;;;;;;;17.41;56.76;100947.00;5070980;28;20064;-68
2022/09/16 02:40:01;;;;;;;6.68;2.28;;;;;;;17.42;57.23;100943.25;5071260;28;20044;-69
2022/09/16 02:42:29;;;;;;;6.47;2.50;;;;;;;17.43;56.82;100936.84;5070849;28;20064;-69
2022/09/16 02:44:59;;;;;;;4.28;2.30;;;;;;;17.47;57.10;100938.25;5071446;28;20048;-68
2022/09/16 02:47:36;;;;;;;7.80;3.00;;;;;;;17.50;57.34;100924.34;5070857;28;20555;-69
2022/09/16 02:50:45;;;;;;;6.50;2.70;;;;;;;17.50;57.07;100932.50;5071288;28;20045;-68
2022/09/16 02:53:57;;;;;;;5.63;2.88;;;;;;;17.51;57.38;100928.78;4997030;28;20046;-68
2022/09/16 02:56:30;;;;;;;6.35;2.60;;;;;;;17.51;57.23;100931.50;5054938;28;20036;-68
2022/09/16 02:58:57;;;;;;;5.20;2.75;;;;;;;17.51;57.13;100936.06;5071108;28;20048;-69
2022/09/16 03:01:25;;;;;;;5.82;3.05;;;;;;;17.49;57.31;100930.78;5078772;28;20352;-69
2022/09/16 03:03:55;;;;;;;7.45;2.70;;;;;;;17.46;57.30;100917.53;5090943;28;20547;-69
2022/09/16 03:06:24;;;;;;;6.00;3.25;;;;;;;17.43;57.05;100923.25;5091068;28;20047;-70
2022/09/16 03:08:53;;;;;;;4.75;2.50;;;;;;;17.41;57.30;100927.97;5091090;28;20048;-69
2022/09/16 03:11:22;;;;;;;9.23;3.28;;;;;;;17.37;57.24;100921.16;5089953;28;20043;-69
2022/09/16 03:14:22;;;;;;;6.45;2.70;;;;;;;17.32;57.17;100927.03;5091150;28;20059;-69
2022/09/16 03:16:58;;;;;;;4.38;2.50;;;;;;;17.27;57.13;100928.47;5092695;28;20044;-69
2022/09/16 03:19:45;;;;;;;7.25;3.10;;;;;;;17.22;56.92;100928.06;5074786;28;20040;-69
2022/09/16 03:22:31;;;;;;;6.18;3.22;;;;;;;17.16;56.82;100934.97;5072711;28;20044;-70
2022/09/16 03:25:09;;;;;;;6.80;2.58;;;;;;;17.12;56.61;100914.56;5074792;28;20455;-69
2022/09/16 03:27:54;;;;;;;6.03;2.80;;;;;;;17.07;56.99;100920.41;5074410;28;20225;-70
2022/09/16 03:30:21;;;;;;;4.93;2.67;;;;;;;17.06;57.15;100918.69;5074605;28;20503;-70
2022/09/16 03:32:58;;;;;;;5.50;2.88;;;;;;;17.05;57.05;100919.69;5055632;28;20041;-70
2022/09/16 03:35:25;;;;;;;5.65;3.45;;;;;;;17.00;56.72;100919.28;5054665;28;20052;-69
2022/09/16 03:37:55;;;;;;;6.50;2.60;;;;;;;16.96;57.14;100925.16;5054287;28;20107;-69
2022/09/16 03:40:22;;;;;;;6.50;2.70;;;;;;;16.92;56.83;100926.44;5054635;28;20480;-69
2022/09/16 03:42:49;;;;;;;7.82;3.25;;;;;;;16.85;56.88;100923.47;5036550;28;20072;-69
2022/09/16 03:45:19;;;;;;;7.50;2.75;;;;;;;16.80;57.20;100928.50;5054427;28;20508;-69
2022/09/16 03:47:48;;;;;;;4.20;2.72;;;;;;;16.78;56.99;100927.78;5054700;28;20103;-70
2022/09/16 03:50:16;;;;;;;5.50;2.28;;;;;;;16.77;56.97;100929.63;5046148;28;20045;-70
2022/09/16 03:52:43;;;;;;;5.45;2.63;;;;;;;16.74;57.13;100919.09;5073940;28;20036;-70
2022/09/16 03:55:10;;;;;;;5.72;2.80;;;;;;;16.74;57.62;100920.94;5073791;28;20090;-69
2022/09/16 03:57:37;;;;;;;8.73;3.35;;;;;;;16.74;57.30;100923.66;5074092;28;20102;-70
2022/09/16 04:00:06;;;;;;;10.98;3.35;;;;;;;16.73;57.51;100921.94;5064867;28;20052;-70
2022/09/16 04:02:38;;;;;;;7.05;2.63;;;;;;;16.74;57.27;100921.78;5053714;28;20072;-70
2022/09/16 04:05:07;;;;;;;6.60;2.85;;;;;;;16.71;57.62;100913.97;5053842;28;20041;-69
2022/09/16 04:07:34;;;;;;;6.35;2.40;;;;;;;16.70;57.37;100914.09;5053898;28;20041;-70
2022/09/16 04:10:01;;;;;;;4.95;2.38;;;;;;;16.70;57.81;100914.09;5054130;28;20041;-70
2022/09/16 04:12:28;;;;;;;5.63;2.00;;;;;;;16.68;57.75;100916.97;5053626;28;20053;-70
2022/09/16 04:14:55;;;;;;;6.15;2.10;;;;;;;16.63;57.70;100913.81;5053800;28;20037;-69
2022/09/16 04:17:22;;;;;;;5.60;1.88;;;;;;;16.58;57.86;100920.66;5056634;28;20065;-69
2022/09/16 04:19:50;;;;;;;5.95;1.88;;;;;;;16.56;57.53;100911.81;5080423;28;20079;-69
2022/09/16 04:22:16;;;;;;;2.13;1.60;;;;;;;16.53;58.12;100911.13;5093134;28;20044;-69
2022/09/16 04:24:46;;;;;;;4.57;1.67;;;;;;;16.55;58.07;100921.81;5094001;28;20097;-68
2022/09/16 04:27:12;;;;;;;4.75;1.95;;;;;;;16.57;58.03;100914.38;5093224;28;20039;-69
2022/09/16 04:29:39;;;;;;;5.25;1.80;;;;;;;16.60;58.32;100924.94;5088114;28;20075;-68
2022/09/16 04:32:05;;;;;;;4.78;1.45;;;;;;;16.62;57.98;100922.09;5073193;28;20041;-68
2022/09/16 04:34:32;;;;;;;2.92;1.70;;;;;;;16.63;57.86;100921.09;5075662;28;20045;-68
2022/09/16 04:36:58;;;;;;;4.55;1.80;;;;;;;16.63;58.34;100924.66;5093552;28;20040;-68
2022/09/16 04:39:25;;;;;;;3.45;1.60;;;;;;;16.63;58.16;100931.94;5090834;28;20494;-68
2022/09/16 04:41:51;;;;;;;6.40;2.25;;;;;;;16.63;58.26;100921.09;5073027;28;20036;-68
2022/09/16 04:44:18;;;;;;;5.57;2.00;;;;;;;16.59;57.92;100925.09;5073246;28;20568;-69
2022/09/16 04:46:44;;;;;;;5.25;1.88;;;;;;;16.58;58.03;100921.53;5072933;28;20056;-69
2022/09/16 04:49:14;;;;;;;4.72;1.75;;;;;;;16.59;58.40;100927.78;5056438;28;20311;-68
2022/09/16 04:51:40;;;;;;;4.07;1.83;;;;;;;16.58;58.44;100931.50;5072660;28;20043;-69
2022/09/16 04:54:08;;;;;;;4.85;1.98;;;;;;;16.59;58.37;100925.09;5073072;28;20046;-69
2022/09/16 04:56:35;;;;;;;4.85;1.95;;;;;;;16.60;58.29;100934.94;5072787;28;20045;-69
2022/09/16 04:59:04;;;;;;;6.82;2.42;;;;;;;16.57;58.10;100935.22;5072837;28;20049;-69
2022/09/16 05:01:34;;;;;;;4.30;2.35;;;;;;;16.53;58.12;100932.81;5092011;28;20040;-69
2022/09/16 05:04:04;;;;;;;5.32;2.20;;;;;;;16.50;58.63;100933.09;5093201;28;20101;-69
2022/09/16 05:06:33;;;;;;;4.85;1.83;;;;;;;16.48;58.31;100931.53;5092990;28;20040;-69
2022/09/16 05:09:01;;;;;;;3.38;1.90;;;;;;;16.46;58.32;100926.25;5092826;28;20383;-68
2022/09/16 05:11:33;;;;;;;6.72;2.20;;;;;;;16.44;58.76;100914.69;5073119;28;20045;-69
2022/09/16 05:14:05;;;;;;;4.50;1.85;;;;;;;16.44;58.41;100908.41;5072737;28;20036;-68
2022/09/16 05:16:33;;;;;;;6.03;1.95;;;;;;;16.45;58.98;100905.56;5072359;28;20052;-68
2022/09/16 05:19:03;;;;;;;5.43;2.40;;;;;;;16.48;58.72;100905.28;5072277;28;20044;-69
2022/09/16 05:21:35;;;;;;;5.03;2.00;;;;;;;16.53;58.95;100916.53;5072238;28;20048;-70
2022/09/16 05:24:07;;;;;;;2.40;1.40;;;;;;;16.55;58.86;100913.69;5072546;28;20044;-68
2022/09/16 05:26:36;;;;;;;4.47;1.70;;;;;;;16.55;58.86;100915.53;5072374;28;20434;-68
2022/09/16 05:29:05;;;;;;;3.17;1.67;;;;;;;16.56;58.83;100918.09;5072225;28;20499;-68
2022/09/16 05:31:35;;;;;;;4.10;1.65;;;;;;;16.59;58.98;100919.66;5090573;28;20484;-68
2022/09/16 05:34:20;;;;;;;5.05;1.85;;;;;;;16.62;58.82;100922.94;5092805;28;20448;-68
2022/09/16 05:36:48;;;;;;;3.47;1.80;;;;;;;16.66;58.73;100916.25;5092563;28;20047;-68
2022/09/16 05:39:17;;;;;;;5.32;1.55;;;;;;;16.71;59.03;100918.53;5091911;28;20044;-68
2022/09/16 05:41:57;;;;;;;5.32;1.63;;;;;;;16.72;59.23;100915.66;5071989;28;20033;-69
2022/09/16 05:44:28;;;;;;;4.95;1.70;;;;;;;16.73;58.94;100920.09;5072203;28;20048;-68
2022/09/16 05:46:54;;;;;;;8.27;2.30;;;;;;;16.75;58.85;100923.50;5054112;28;20056;-69
2022/09/16 05:49:22;;;;;;;4.57;1.52;;;;;;;16.75;58.85;100923.50;5053879;28;20071;-68
2022/09/16 05:51:49;;;;;;;2.80;1.60;;;;;;;16.78;59.05;100925.94;5073715;28;20040;-68
2022/09/16 05:54:18;;;;;;;2.85;1.35;;;;;;;16.79;58.93;100934.91;5092337;28;20089;-69
2022/09/16 05:56:45;;;;;;;6.03;1.50;;;;;;;16.80;59.04;100936.63;5074276;28;20043;-68
2022/09/16 05:59:13;;;;;;;5.07;1.52;;;;;;;16.80;58.67;100936.63;5079052;28;20041;-68
2022/09/16 06:01:40;;;;;;;4.22;1.38;;;;;;;16.80;58.98;100934.78;5071642;28;20045;-69
2022/09/16 06:04:11;;;;;;;3.30;1.40;;;;;;;16.78;58.92;100935.91;5071924;28;20406;-69
2022/09/16 06:06:40;;;;;;;3.83;1.25;;;;;;;16.77;59.05;100943.19;5071837;28;20106;-68
2022/09/16 06:09:13;;;;;;;3.38;1.30;;;;;;;16.78;59.16;100949.47;5072660;28;20052;-68
2022/09/16 06:11:45;;;;;;;3.05;1.52;;;;;;;16.77;58.89;100951.34;5071080;28;20049;-69
2022/09/16 06:14:14;;;;;;;2.85;1.58;;;;;;;16.76;58.98;100951.50;5071606;28;20086;-68
2022/09/16 06:16:42;;;;;;;5.63;1.90;;;;;;;16.76;58.97;100949.63;5071693;28;20383;-68
2022/09/16 06:19:16;;;;;;;2.90;1.30;;;;;;;16.75;58.90;100958.78;5081740;28;20048;-69
2022/09/16 06:21:44;;;;;;;3.85;1.23;;;;;;;16.76;59.29;100948.78;5091343;28;20075;-68
2022/09/16 06:24:12;;;;;;;4.47;1.30;;;;;;;16.76;58.84;100946.06;5091700;28;20112;-69
2022/09/16 06:26:40;;;;;;;4.57;1.23;;;;;;;16.76;58.92;100946.91;5091351;28;20521;-68
2022/09/16 06:29:08;;;;;;;4.50;1.27;;;;;;;16.76;58.92;100944.22;5077626;28;20048;-67
2022/09/16 06:31:36;;;;;;;3.80;1.35;;;;;;;16.79;59.48;100946.63;5070947;28;20037;-68
2022/09/16 06:34:12;;;;;;;3.15;1.25;;;;;;;16.79;59.50;100951.19;5071341;28;20062;-67
2022/09/16 06:36:39;;;;;;;5.25;1.17;;;;;;;16.80;59.29;100950.19;5071298;28;20060;-68
2022/09/16 06:39:12;;;;;;;3.42;1.10;;;;;;;16.80;59.28;100959.19;5072320;28;20052;-68
2022/09/16 06:41:38;;;;;;;1.30;0.82;;;;;;;16.80;59.41;100956.47;5071182;28;20052;-67
2022/09/16 06:44:06;;;;;;;2.72;0.80;;;;;;;16.82;59.32;100959.88;5071289;28;20095;-68
2022/09/16 06:46:33;;;;;;;2.05;0.80;;;;;;;16.84;59.13;100957.03;5071113;28;20490;-67
2022/09/16 06:48:59;;;;;;;2.25;0.95;;;;;;;16.86;59.30;100962.31;5072163;28;20047;-68
2022/09/16 06:51:32;;;;;;;3.10;0.82;;;;;;;16.87;59.29;100964.03;5053177;28;20056;-67
2022/09/16 06:54:04;;;;;;;2.15;0.50;;;;;;;16.85;59.16;100966.88;5071213;28;20064;-66
2022/09/16 06:56:32;;;;;;;1.00;0.70;;;;;;;16.83;58.70;100966.16;5070796;28;20052;-67
2022/09/16 06:58:59;;;;;;;4.15;0.80;;;;;;;16.80;59.06;100964.59;5072065;28;20498;-67
2022/09/16 07:01:28;;;;;;;3.25;0.70;;;;;;;16.79;58.90;100968.31;5070862;28;20114;-67
2022/09/16 07:03:57;;;;;;;5.38;1.20;;;;;;;16.79;58.92;100968.31;5070971;28;20047;-68
2022/09/16 07:06:27;;;;;;;2.30;0.75;;;;;;;16.80;58.85;100975.47;5076616;28;20410;-68
2022/09/16 07:09:13;;;;;;;1.63;0.90;;;;;;;16.83;58.73;100969.75;5091053;28;20118;-68
2022/09/16 07:11:40;;;;;;;2.72;0.90;;;;;;;16.85;58.65;100972.31;5090509;28;20040;-67
2022/09/16 07:14:11;;;;;;;1.90;0.63;;;;;;;16.87;58.91;100974.88;5083997;28;20085;-66
2022/09/16 07:16:38;;;;;;;3.55;1.00;;;;;;;16.89;58.99;100976.44;5091625;28;20509;-68
2022/09/16 07:19:05;;;;;;;3.00;1.13;;;;;;;16.91;58.71;100976.28;5091084;28;20058;-68
2022/09/16 07:21:31;;;;;;;3.13;1.15;;;;;;;16.95;58.73;100967.72;5090542;28;20044;-67
2022/09/16 07:24:02;;;;;;;4.85;1.05;;;;;;;17.06;59.05;100972.97;5091505;28;20064;-66
2022/09/16 07:26:31;;;;;;;3.65;1.13;;;;;;;17.16;58.82;100981.09;5090952;28;20113;-66
2022/09/16 07:29:00;;;;;;;2.92;1.05;;;;;;;17.31;59.08;100973.31;5091391;28;20044;-67
2022/09/16 07:31:30;;;;;;;2.08;0.95;;;;;;;17.46;59.51;100961.81;5091137;28;20090;-66
2022/09/16 07:34:01;;;;;;;5.10;1.30;;;;;;;17.62;59.07;100966.59;5089496;28;20040;-66
2022/09/16 07:36:38;;;;;;;3.15;1.00;;;;;;;17.77;58.82;100964.25;5090619;28;20082;-66
2022/09/16 07:39:06;;;;;;;3.38;1.17;;;;;;;17.92;58.87;100968.19;5091122;28;20093;-66
2022/09/16 07:41:36;;;;;;;3.17;1.02;;;;;;;18.06;58.42;100964.94;5091063;28;20048;-67
2022/09/16 07:44:10;;;;;;;4.80;1.20;;;;;;;18.26;58.64;100964.78;5091305;28;20070;-67
2022/09/16 07:46:37;;;;;;;4.90;1.50;;;;;;;18.42;58.51;100960.34;5090793;28;20052;-65
2022/09/16 07:49:06;;;;;;;3.25;1.15;;;;;;;18.57;57.96;100966.06;5086849;28;20047;-65
2022/09/16 07:51:33;;;;;;;5.65;1.30;;;;;;;18.76;58.08;100965.09;5054612;28;20044;-65
2022/09/16 07:54:05;;;;;;;3.28;1.00;;;;;;;18.94;57.82;100967.75;5090854;28;20418;-64
2022/09/16 07:56:34;;;;;;;4.28;0.95;;;;;;;19.08;57.16;100964.44;5090624;28;20036;-65
2022/09/16 07:59:03;;;;;;;3.05;1.17;;;;;;;19.21;57.08;100975.75;5082906;28;20313;-65
2022/09/16 08:01:30;;;;;;;4.80;0.98;;;;;;;19.31;56.58;100981.06;5070282;28;20037;-65
2022/09/16 08:04:01;;;;;;;3.22;1.45;;;;;;;19.40;56.49;100982.00;5073707;28;20040;-65
2022/09/16 08:06:30;;;;;;;6.50;1.10;;;;;;;19.48;56.15;100977.44;5055732;28;20490;-65
2022/09/16 08:08:58;;;;;;;3.22;1.00;;;;;;;19.58;56.04;100980.94;5075471;28;20029;-65
2022/09/16 08:11:40;;;;;;;8.02;1.20;;;;;;;19.66;55.79;100982.81;5073561;28;20048;-65
2022/09/16 08:14:09;;;;;;;3.60;1.00;;;;;;;19.76;55.34;100978.09;5073927;28;20494;-65
2022/09/16 08:16:36;;;;;;;6.00;0.88;;;;;;;19.87;55.45;100979.66;5073600;28;20056;-65
2022/09/16 08:19:02;;;;;;;1.88;1.08;;;;;;;19.97;54.85;100985.81;5074631;28;20067;-65
2022/09/16 08:21:29;;;;;;;3.78;1.00;;;;;;;20.05;54.58;100991.28;5072116;28;20523;-65
2022/09/16 08:23:58;;;;;;;5.55;1.02;;;;;;;20.09;53.96;100991.84;5073629;28;20048;-65
2022/09/16 08:26:25;;;;;;;1.77;0.88;;;;;;;20.12;54.35;100989.63;5073283;28;20045;-65
2022/09/16 08:28:52;;;;;;;4.25;1.42;;;;;;;20.18;53.69;100990.84;5057556;28;20092;-65
2022/09/16 08:31:36;;;;;;;3.83;1.00;;;;;;;20.25;53.61;100995.44;5093235;28;20051;-66
2022/09/16 08:34:07;;;;;;;3.92;0.95;;;;;;;20.35;53.55;100997.16;5091266;28;20040;-65
2022/09/16 08:36:33;;;;;;;3.15;0.85;;;;;;;20.49;53.48;100999.25;5093471;28;20036;-66
2022/09/16 08:39:00;;;;;;;4.50;0.95;;;;;;;20.56;53.36;100987.50;5088952;28;20036;-65
2022/09/16 08:41:45;;;;;;;5.53;1.10;;;;;;;20.61;53.11;100989.72;5072913;28;20548;-65
2022/09/16 08:44:27;;;;;;;3.85;0.98;;;;;;;20.65;52.82;101001.13;5054999;28;20369;-65
2022/09/16 08:47:12;;;;;;;3.85;1.17;;;;;;;20.58;52.52;101000.97;5073171;28;20398;-65
2022/09/16 08:49:42;;;;;;;5.40;1.25;;;;;;;20.51;52.39;100987.16;5073895;28;20055;-64
2022/09/16 08:52:21;;;;;;;5.22;1.20;;;;;;;20.48;52.33;100979.31;5072212;28;20533;-64
2022/09/16 08:54:56;;;;;;;6.07;1.40;;;;;;;20.51;52.53;100994.47;5072854;28;20094;-64
2022/09/16 08:57:26;;;;;;;4.38;1.27;;;;;;;20.56;52.21;100995.69;5072885;28;20040;-65
2022/09/16 08:59:56;;;;;;;4.95;1.10;;;;;;;20.57;52.24;100988.34;5087164;28;20189;-65
2022/09/16 09:02:30;;;;;;;3.60;0.77;;;;;;;20.56;51.82;100987.50;5092183;28;20040;-65
2022/09/16 09:04:58;;;;;;;3.38;1.00;;;;;;;20.58;52.04;100987.31;5093032;28;20470;-64
2022/09/16 09:07:33;;;;;;;4.78;1.10;;;;;;;20.57;51.57;100993.81;5091333;28;20051;-64
2022/09/16 09:10:06;;;;;;;;;;;;;;;20.60;51.82;100997.03;5075363;28;20040;-64
2022/09/16 09:12:42;;;;;;;4.43;0.80;;;;;;;20.67;51.48;100990.91;5092246;28;20011;-64
2022/09/16 09:15:35;;;;;;;4.90;1.00;;;;;;;20.65;51.05;101001.97;5092530;28;20397;-65
2022/09/16 09:18:35;;;;;;;3.30;1.10;;;;;;;20.55;51.21;100998.56;5090803;28;20040;-65
2022/09/16 09:21:10;;;;;;;1.77;0.70;;;;;;;20.53;50.60;100997.91;5092390;28;20051;-65
2022/09/16 09:23:38;;;;;;;;;;;;;;;20.52;50.75;100997.03;5092426;28;20094;-65
2022/09/16 09:26:21;;;;;;;3.70;0.80;;;;;;;20.64;50.75;100994.81;5092469;28;19924;-64
2022/09/16 09:29:18;;;;;;;3.00;0.63;;;;;;;20.69;50.62;100994.31;5084682;28;20040;-66
2022/09/16 09:32:06;;;;;;;2.22;0.80;;;;;;;20.72;50.59;100992.09;5091725;28;20456;-65
2022/09/16 09:35:07;;;;;;;2.45;0.70;;;;;;;20.72;50.10;100992.09;5092484;28;20060;-66
2022/09/16 09:37:57;;;;;;;2.90;1.00;;;;;;;20.76;49.82;100981.69;5092402;28;20048;-65
2022/09/16 09:40:26;;;;;;;2.80;0.60;;;;;;;20.80;49.71;100978.44;5080241;28;20044;-65
2022/09/16 09:43:23;;;;;;;3.63;0.95;;;;;;;20.85;49.40;100984.25;5071261;28;20464;-65
2022/09/16 09:46:12;;;;;;;5.65;1.00;;;;;;;20.92;49.48;100976.22;5069771;28;20060;-66
2022/09/16 09:48:45;;;;;;;3.20;0.70;;;;;;;20.96;49.46;100985.78;5071801;28;20044;-65
2022/09/16 09:51:36;;;;;;;2.63;0.68;;;;;;;20.96;49.08;100987.66;5072963;28;20106;-67
2022/09/16 09:54:26;;;;;;;4.55;1.20;;;;;;;20.83;48.78;101016.34;5071286;28;20041;-67
2022/09/16 09:56:59;;;;;;;4.97;1.10;;;;;;;20.66;48.88;101035.59;5058764;28;20037;-65
2022/09/16 09:59:44;;;;;;;12.57;2.05;;;;;;;20.33;48.83;101004.66;5084834;28;20043;-66
2022/09/16 10:02:18;;;;;;;11.20;1.17;;;;;;;19.97;48.93;101013.06;5091479;28;20106;-66
2022/09/16 10:04:49;;;;;;;4.47;1.00;;;;;;;19.75;49.32;101027.31;5091761;28;20040;-66
2022/09/16 10:07:19;;;;;;;5.38;0.80;;;;;;;19.60;49.32;101027.06;5084591;28;20396;-66
2022/09/16 10:09:56;;;;;;;6.65;0.93;;;;;;;19.41;49.64;101021.84;5072438;28;20036;-67
2022/09/16 10:12:32;;;;;;;6.70;0.90;;;;;;;19.25;49.99;101017.13;5070846;28;20449;-67
2022/09/16 10:15:03;;;;;;;4.35;1.40;;;;;;;19.09;50.07;101017.88;5071359;28;20548;-66
2022/09/16 10:17:31;;;;;;;1.30;0.50;;;;;;;18.93;50.32;101012.31;5057689;28;20098;-65
2022/09/16 10:20:46;;;;;;;5.95;0.88;;;;;;;18.71;50.18;101016.41;5053467;28;20294;-65
2022/09/16 10:23:19;;;;;;;3.90;0.70;;;;;;;18.53;50.51;101019.06;5057508;28;20118;-65
2022/09/16 10:25:46;;;;;;;2.65;0.45;;;;;;;18.39;50.95;101015.03;5070869;28;20044;-66
2022/09/16 10:28:24;;;;;;;3.33;0.60;;;;;;;18.28;51.28;101023.44;5068186;28;20048;-66
2022/09/16 10:30:57;;;;;;;2.50;0.60;;;;;;;18.21;51.70;101026.91;5071212;28;20051;-66
2022/09/16 10:33:34;;;;;;;2.10;0.45;;;;;;;18.15;51.87;101024.81;5070840;28;20094;-67
2022/09/16 10:36:06;;;;;;;1.50;1.00;;;;;;;18.13;52.03;101010.53;5070911;28;20548;-66
2022/09/16 10:38:40;;;;;;;3.58;0.60;;;;;;;18.08;52.29;101017.28;5069239;28;20048;-67
2022/09/16 10:41:14;;;;;;;2.90;0.50;;;;;;;18.11;52.23;101016.13;5071039;28;20033;-67
2022/09/16 10:43:48;;;;;;;1.15;0.50;;;;;;;18.16;52.86;101012.94;5070638;28;20295;-66
2022/09/16 10:46:17;;;;;;;3.00;0.98;;;;;;;18.22;53.18;101013.16;5070867;28;20045;-67
2022/09/16 10:48:45;;;;;;;2.67;0.60;;;;;;;18.32;52.96;101003.06;5068516;28;20396;-67
2022/09/16 10:51:26;;;;;;;3.00;0.68;;;;;;;18.46;53.49;101008.97;5070586;28;20045;-67
2022/09/16 10:53:59;;;;;;;4.93;1.13;;;;;;;18.66;53.84;101002.41;5070398;28;20045;-67
2022/09/16 10:56:32;;;;;;;3.20;1.40;;;;;;;18.88;53.89;101003.78;5069663;28;20114;-66
2022/09/16 10:59:12;;;;;;;3.75;1.33;;;;;;;19.05;53.98;101001.00;5051921;28;20041;-67
2022/09/16 11:02:03;;;;;;;4.28;0.90;;;;;;;19.19;53.91;100999.56;5050540;28;20396;-66
2022/09/16 11:04:45;;;;;;;3.38;1.00;;;;;;;19.37;53.57;100999.53;5050734;28;20336;-66
2022/09/16 11:07:20;;;;;;;3.95;0.95;;;;;;;19.55;53.75;100997.59;5066609;28;20110;-66
2022/09/16 11:09:53;;;;;;;;;;;;;;;19.72;53.76;100994.94;5071147;28;20033;-65
2022/09/16 11:12:28;;;;;;;3.83;1.65;;;;;;;19.94;53.46;100992.47;5068997;28;19925;-66
2022/09/16 11:15:11;;;;;;;4.13;1.90;;;;;;;20.12;53.65;100996.97;5070879;28;20052;-65
2022/09/16 11:18:03;;;;;;;2.63;1.08;;;;;;;20.31;53.62;100992.03;5067670;28;20102;-65
2022/09/16 11:20:54;;;;;;;3.05;1.25;;;;;;;20.51;54.10;100999.94;5070712;28;20044;-65
2022/09/16 11:24:05;;;;;;;2.25;0.82;;;;;;;20.65;53.65;101001.97;5070332;28;20052;-65
2022/09/16 11:27:01;;;;;;;2.20;1.02;;;;;;;20.76;53.39;100998.91;5067803;28;20459;-65
2022/09/16 11:29:46;;;;;;;;;;;;;;;20.88;52.83;101002.19;5071025;28;20040;-66
2022/09/16 11:32:25;;;;;;;4.07;1.02;;;;;;;21.01;52.93;101002.50;5070270;28;19920;-66
2022/09/16 11:35:43;;;;;;;3.40;0.82;;;;;;;21.14;53.09;101005.56;5069371;28;20040;-67
2022/09/16 11:38:49;;;;;;;1.52;0.40;;;;;;;21.27;51.83;101002.31;5019179;28;20293;-68
2022/09/16 11:41:34;;;;;;;2.55;0.50;;;;;;;21.39;51.29;101010.97;5054216;28;20037;-67
2022/09/16 11:44:19;;;;;;;2.22;0.75;;;;;;;21.52;50.87;101011.28;5054327;28;20071;-66
2022/09/16 11:47:04;;;;;;;2.15;0.70;;;;;;;21.59;50.03;101000.53;5054548;28;20052;-68
2022/09/16 11:49:51;;;;;;;4.30;0.50;;;;;;;21.71;49.96;101004.56;5054161;28;20045;-67
2022/09/16 11:52:18;;;;;;;1.30;0.40;;;;;;;21.80;50.07;101015.28;5053655;28;20102;-67
2022/09/16 11:55:13;;;;;;;6.20;1.05;;;;;;;21.72;49.38;101044.56;5054017;28;20043;-69
2022/09/16 11:57:45;;;;;;;7.93;1.40;;;;;;;21.43;49.04;101056.91;5053839;28;20178;-66